Time;durP1;ratioP1;P1;durP2;ratioP2;P2;SDS_P1;SDS_P2;PMS_P1;PMS_P2;Temp;Humidity;BMP_temperature;BMP_pressure;BME280_temperature;BME280_humidity;BME280_pressure;Samples;Min_cycle;Max_cycle;Signal;HPM_P1;HPM_P2
2022/05/30 00:00:47;;;;;;;;;2.00;0.67;;;;;16.27;44.54;101018.34;5033010;28;45477;-77
2022/05/30 00:03:13;;;;;;;;;3.00;1.00;;;;;16.24;44.55;101014.03;5020184;28;45559;-76
2022/05/30 00:05:45;;;;;;;;;1.00;1.00;;;;;16.15;44.80;100995.78;5036680;28;45435;-77
2022/05/30 00:08:11;;;;;;;;;1.00;1.00;;;;;16.18;44.87;101012.59;5025176;28;46687;-75
2022/05/30 00:10:36;;;;;;;;;1.00;1.00;;;;;16.17;44.85;101004.59;5024741;28;45503;-76
2022/05/30 00:13:01;;;;;;;;;2.33;1.00;;;;;16.16;44.98;101011.81;5025896;28;45510;-77
2022/05/30 00:15:29;;;;;;;;;3.00;1.00;;;;;16.13;45.02;101003.06;5023029;28;45424;-77
2022/05/30 00:17:56;;;;;;;;;0.33;0.33;;;;;16.15;45.08;101006.53;5039983;28;46351;-77
2022/05/30 00:20:22;;;;;;;;;1.00;1.00;;;;;16.11;45.43;100997.81;5023566;28;45368;-76
2022/05/30 00:22:48;;;;;;;;;0.00;0.00;;;;;15.88;45.26;100960.75;5028662;28;45589;-76
2022/05/30 00:25:13;;;;;;;;;0.67;0.67;;;;;16.09;45.41;100994.34;5031602;28;45600;-76
2022/05/30 00:27:38;;;;;;;;;0.00;0.00;;;;;15.97;45.35;100973.63;5036307;28;46666;-77
2022/05/30 00:30:05;;;;;;;;;1.00;1.00;;;;;16.07;45.48;100987.34;5019734;28;45273;-76
2022/05/30 00:32:32;;;;;;;;;1.00;1.00;;;;;16.06;45.53;100988.28;5021392;28;45505;-77
2022/05/30 00:34:58;;;;;;;;;1.00;1.00;;;;;16.05;45.85;100984.72;5025065;28;45479;-75
2022/05/30 00:37:25;;;;;;;;;1.67;1.00;;;;;15.82;45.59;100957.47;5024457;28;45580;-75
2022/05/30 00:39:51;;;;;;;;;0.33;0.33;;;;;15.98;45.90;100980.72;5024919;28;45382;-75
2022/05/30 00:42:20;;;;;;;;;1.00;1.00;;;;;15.95;45.76;100981.75;5031999;28;45533;-77
2022/05/30 00:44:48;;;;;;;;;2.33;2.33;;;;;15.97;45.94;100979.84;5032388;28;45707;-76
2022/05/30 00:47:14;;;;;;;;;4.33;4.33;;;;;15.92;45.98;100963.16;5034842;28;46431;-76
2022/05/30 00:49:42;;;;;;;;;4.00;3.00;;;;;15.72;46.36;100931.28;5028695;28;45467;-76
2022/05/30 00:52:11;;;;;;;;;1.00;1.00;;;;;15.82;46.29;100961.97;5028772;28;45618;-79
2022/05/30 00:54:45;;;;;;;;;0.00;0.00;;;;;15.78;46.07;100952.38;5030837;28;45562;-76
2022/05/30 00:57:20;;;;;;;;;0.33;0.33;;;;;15.91;46.36;100974.00;5033133;28;46384;-77
2022/05/30 00:59:51;;;;;;;;;2.00;2.00;;;;;15.86;46.42;100968.91;5032534;28;45390;-77
2022/05/30 01:02:17;;;;;;;;;0.00;0.00;;;;;15.86;46.68;100968.03;5034939;28;45407;-76
2022/05/30 01:07:26;;;;;;;;;2.00;2.00;;;;;15.68;46.80;100940.44;5028168;28;45762;-76
2022/05/30 01:09:55;;;;;;;;;1.00;1.00;;;;;15.79;46.97;100962.19;5034205;28;45403;-77
2022/05/30 01:12:36;;;;;;;;;0.67;0.67;;;;;15.77;46.68;100956.88;5028018;28;45416;-76
2022/05/30 01:15:03;;;;;;;;;1.00;1.00;;;;;15.76;46.92;100954.31;5033173;28;45439;-76
2022/05/30 01:17:28;;;;;;;;;2.00;2.00;;;;;15.61;46.93;100937.25;5035583;28;46674;-75
2022/05/30 01:20:06;;;;;;;;;1.00;1.00;;;;;15.69;46.98;100953.78;5028097;28;45410;-76
2022/05/30 01:22:50;;;;;;;;;3.00;1.00;;;;;15.69;47.13;100955.63;5027961;28;45505;-77
2022/05/30 01:25:26;;;;;;;;;1.67;1.00;;;;;15.65;47.43;100960.31;5026087;28;45456;-77
2022/05/30 01:28:22;;;;;;;;;2.33;1.33;;;;;15.63;47.27;100952.31;5028290;28;47455;-76
2022/05/30 01:30:49;;;;;;;;;3.33;2.00;;;;;15.63;47.63;100955.00;5027089;28;45487;-76
2022/05/30 01:33:15;;;;;;;;;1.00;1.00;;;;;15.42;47.28;100921.41;5032973;28;45622;-76
2022/05/30 01:35:40;;;;;;;;;1.00;1.00;;;;;15.45;47.73;100925.72;5030793;28;45381;-75
2022/05/30 01:38:06;;;;;;;;;1.67;1.00;;;;;15.58;47.56;100951.75;5034140;28;46516;-77
2022/05/30 01:40:31;;;;;;;;;1.00;1.00;;;;;15.45;47.67;100929.28;5027407;28;45540;-76
2022/05/30 01:42:56;;;;;;;;;1.00;1.00;;;;;15.55;47.76;100954.63;5033502;28;45513;-76
2022/05/30 01:45:24;;;;;;;;;3.00;3.00;;;;;15.43;47.78;100938.38;5032773;28;45353;-77
2022/05/30 01:47:49;;;;;;;;;3.67;3.67;;;;;15.53;47.92;100953.00;5031074;28;47266;-76
2022/05/30 01:50:15;;;;;;;;;2.00;2.00;;;;;15.47;47.84;100950.69;5027843;28;45238;-75
2022/05/30 01:52:40;;;;;;;;;2.00;2.00;;;;;15.48;47.88;100955.97;5027614;28;45547;-77
2022/05/30 01:55:06;;;;;;;;;2.00;2.00;;;;;15.41;47.92;100954.63;5027950;28;45497;-76
2022/05/30 01:57:32;;;;;;;;;1.33;1.33;;;;;15.45;48.02;100952.59;5033250;28;45529;-75
2022/05/30 01:59:57;;;;;;;;;1.67;1.00;;;;;15.44;47.97;100956.25;5034762;28;45594;-77
2022/05/30 02:02:23;;;;;;;;;6.00;2.00;;;;;15.27;48.01;100928.59;5028652;28;46489;-76
2022/05/30 02:04:48;;;;;;;;;1.00;1.00;;;;;15.31;48.11;100934.63;5028308;28;45567;-76
2022/05/30 02:07:14;;;;;;;;;1.00;1.00;;;;;15.36;48.35;100952.22;5027570;28;45852;-76
2022/05/30 02:09:39;;;;;;;;;2.67;1.00;;;;;15.25;48.29;100935.00;5029450;28;45515;-76
2022/05/30 02:12:05;;;;;;;;;1.67;1.67;;;;;15.35;48.38;100950.47;5032493;28;45493;-76
2022/05/30 02:14:30;;;;;;;;;2.00;2.00;;;;;15.24;48.46;100933.28;5033700;28;45290;-76
2022/05/30 02:17:04;;;;;;;;;2.00;2.00;;;;;15.31;48.41;100948.06;5033674;28;46306;-76
2022/05/30 02:19:32;;;;;;;;;2.00;2.00;;;;;15.31;48.66;100945.38;5033123;28;45502;-76
2022/05/30 02:22:00;;;;;;;;;1.00;1.00;;;;;15.31;48.74;100950.75;4999845;28;45409;-76
2022/05/30 02:24:25;;;;;;;;;3.67;2.00;;;;;15.28;48.79;100941.03;5031656;28;45427;-77
2022/05/30 02:26:50;;;;;;;;;1.33;0.33;;;;;15.27;48.75;100941.16;5031214;28;47176;-76
2022/05/30 02:29:16;;;;;;;;;2.00;2.00;;;;;15.25;48.70;100948.44;5028231;28;45566;-77
2022/05/30 02:31:42;;;;;;;;;1.00;1.00;;;;;15.24;48.98;100942.22;5029080;28;45482;-76
2022/05/30 02:36:52;;;;;;;;;1.33;1.33;;;;;15.02;49.04;100910.41;5032661;28;45500;-77
2022/05/30 02:39:21;;;;;;;;;2.00;2.00;;;;;15.16;48.90;100939.09;5032085;28;45489;-77
2022/05/30 02:41:48;;;;;;;;;2.67;2.00;;;;;15.15;48.97;100945.44;5031151;28;45367;-77
2022/05/30 02:44:14;;;;;;;;;1.67;1.33;;;;;15.17;49.01;100955.13;5027787;28;48796;-77
2022/05/30 02:46:40;;;;;;;;;1.00;1.00;;;;;15.01;48.85;100931.94;5026533;28;46380;-76
2022/05/30 02:49:06;;;;;;;;;2.00;2.00;;;;;15.09;48.50;100943.13;5030466;28;47341;-76
2022/05/30 02:51:32;;;;;;;;;2.67;2.00;;;;;15.02;48.72;100933.69;5033363;28;45507;-77
2022/05/30 02:53:57;;;;;;;;;2.00;2.00;;;;;14.97;49.04;100929.47;5030258;28;45552;-76
2022/05/30 02:56:23;;;;;;;;;2.33;2.33;;;;;15.09;49.00;100946.66;5031669;28;46432;-77
2022/05/30 02:58:49;;;;;;;;;3.00;1.00;;;;;14.98;48.96;100924.94;5030475;28;45371;-75
2022/05/30 03:01:15;;;;;;;;;2.00;2.00;;;;;14.96;48.94;100933.09;5034944;28;45502;-76
2022/05/30 03:03:41;;;;;;;;;3.00;1.00;;;;;15.04;49.14;100943.38;5031423;28;45507;-76
2022/05/30 03:06:07;;;;;;;;;5.33;2.00;;;;;14.98;49.24;100939.25;5033077;28;45461;-76
2022/05/30 03:08:32;;;;;;;;;5.33;2.00;;;;;15.01;49.11;100951.63;5036076;28;45335;-76
2022/05/30 03:10:58;;;;;;;;;1.00;1.00;;;;;14.95;49.22;100943.94;5029204;28;46794;-75
2022/05/30 03:13:23;;;;;;;;;1.00;0.00;;;;;14.86;49.55;100933.72;5031033;28;45520;-76
2022/05/30 03:15:48;;;;;;;;;3.00;2.00;;;;;14.93;49.36;100954.75;5030267;28;46196;-77
2022/05/30 03:18:14;;;;;;;;;2.33;1.33;;;;;14.88;49.40;100947.94;5037395;28;45477;-77
2022/05/30 03:20:39;;;;;;;;;1.00;1.00;;;;;14.78;49.33;100932.34;5033328;28;45543;-76
2022/05/30 03:23:06;;;;;;;;;3.33;2.33;;;;;14.90;49.25;100956.75;5035219;28;45451;-76
2022/05/30 03:25:32;;;;;;;;;2.00;1.00;;;;;14.79;49.13;100943.94;5029712;28;46151;-76
2022/05/30 03:27:57;;;;;;;;;2.00;2.00;;;;;14.76;49.41;100944.13;5031284;28;45621;-76
2022/05/30 03:30:23;;;;;;;;;2.67;2.67;;;;;14.83;49.49;100955.38;5030406;28;45510;-75
2022/05/30 03:32:49;;;;;;;;;1.00;1.00;;;;;14.85;48.95;100956.16;5033908;28;45476;-76
2022/05/30 03:35:16;;;;;;;;;2.00;2.00;;;;;14.67;49.26;100934.78;5031025;28;45502;-76
2022/05/30 03:37:43;;;;;;;;;4.00;2.00;;;;;14.74;49.40;100948.72;5036066;28;45400;-76
2022/05/30 03:40:11;;;;;;;;;3.00;3.00;;;;;14.80;49.84;100960.91;5030514;28;45401;-76
2022/05/30 03:42:36;;;;;;;;;3.00;2.00;;;;;14.73;49.90;100953.25;5024289;28;45488;-76
2022/05/30 03:45:03;;;;;;;;;3.00;3.00;;;;;14.65;49.60;100939.38;5034113;28;47189;-76
2022/05/30 03:47:38;;;;;;;;;3.33;3.00;;;;;14.61;49.82;100937.84;5030273;28;46048;-76
2022/05/30 03:50:04;;;;;;;;;3.33;2.33;;;;;14.73;49.82;100963.09;5033473;28;45451;-76
2022/05/30 03:52:29;;;;;;;;;2.67;2.67;;;;;14.66;49.64;100946.50;5030651;28;45463;-77
2022/05/30 03:54:55;;;;;;;;;3.00;3.00;;;;;14.66;49.91;100951.88;5030352;28;46140;-76
2022/05/30 03:57:20;;;;;;;;;4.00;4.00;;;;;14.72;49.99;100964.03;5030190;28;47306;-76
2022/05/30 03:59:47;;;;;;;;;3.33;2.00;;;;;14.68;49.81;100967.84;5037263;28;45387;-76
2022/05/30 04:02:12;;;;;;;;;5.67;4.00;;;;;14.58;49.86;100956.78;5029952;28;45448;-75
2022/05/30 04:04:37;;;;;;;;;5.00;4.00;;;;;14.61;50.04;100961.09;5037892;28;46326;-75
2022/05/30 04:07:03;;;;;;;;;3.67;2.33;;;;;14.58;49.74;100956.78;5025140;28;45516;-75
2022/05/30 04:09:29;;;;;;;;;0.67;0.67;;;;;14.65;50.12;100981.44;5033538;28;45515;-76
2022/05/30 04:11:54;;;;;;;;;5.00;2.67;;;;;14.63;50.03;100983.34;5040611;28;45579;-75
2022/05/30 04:14:19;;;;;;;;;4.33;3.33;;;;;14.43;50.03;100954.97;5029110;28;47089;-75
2022/05/30 04:16:45;;;;;;;;;3.00;3.00;;;;;14.46;49.95;100974.41;5040716;28;45467;-76
2022/05/30 04:19:10;;;;;;;;;3.00;2.67;;;;;14.56;50.20;100993.56;5034327;28;45590;-76
2022/05/30 04:21:36;;;;;;;;;3.67;2.67;;;;;14.56;50.13;100998.91;5033280;28;45535;-75
2022/05/30 04:24:01;;;;;;;;;3.33;3.33;;;;;14.54;50.37;100987.44;5048943;28;47604;-76
2022/05/30 04:26:26;;;;;;;;;4.00;4.00;;;;;14.54;50.10;100992.81;5032161;28;45435;-76
2022/05/30 04:28:52;;;;;;;;;2.67;2.67;;;;;14.52;49.95;100984.81;5028846;28;46061;-76
2022/05/30 04:31:17;;;;;;;;;2.67;2.67;;;;;14.34;49.88;100965.22;5034922;28;45404;-77
2022/05/30 04:33:43;;;;;;;;;3.67;1.67;;;;;14.51;50.29;100992.91;5031415;28;47872;-76
2022/05/30 04:36:10;;;;;;;;;2.67;2.67;;;;;14.51;49.98;100990.25;5035266;28;45479;-76
2022/05/30 04:38:36;;;;;;;;;3.67;1.67;;;;;14.48;50.10;100980.56;5032918;28;45593;-76
2022/05/30 04:41:02;;;;;;;;;4.50;1.50;;;;;14.48;50.01;100987.75;5036360;28;45495;-76
2022/05/30 04:43:27;;;;;;;;;4.33;2.67;;;;;14.26;49.86;100950.53;5032266;28;46038;-76
2022/05/30 04:46:09;;;;;;;;;2.00;2.00;;;;;14.50;49.79;100988.53;5030771;28;45443;-76
2022/05/30 04:48:35;;;;;;;;;2.00;2.00;;;;;14.44;50.07;100978.13;5027515;28;45549;-76
2022/05/30 04:51:00;;;;;;;;;4.00;3.00;;;;;14.49;50.25;100993.03;5032980;28;45432;-77
2022/05/30 04:53:26;;;;;;;;;3.00;2.67;;;;;14.48;49.94;100996.66;5029721;28;46818;-76
2022/05/30 04:55:51;;;;;;;;;2.33;2.33;;;;;14.48;49.88;100993.97;5029592;28;45483;-76
2022/05/30 04:58:16;;;;;;;;;4.00;2.50;;;;;14.48;50.32;100991.28;5030104;28;46835;-77
2022/05/30 05:00:42;;;;;;;;;3.00;3.00;;;;;14.50;50.00;100999.25;5028663;28;45511;-76
2022/05/30 05:03:07;;;;;;;;;2.67;2.67;;;;;14.50;50.10;101007.31;5035737;28;47172;-76
2022/05/30 05:05:32;;;;;;;;;6.00;3.33;;;;;14.50;50.25;100997.44;5033406;28;45521;-77
2022/05/30 05:08:16;;;;;;;;;2.67;2.67;;;;;14.50;49.84;100997.44;5028458;28;45407;-75
2022/05/30 05:10:56;;;;;;;;;5.00;2.67;;;;;14.51;49.88;101007.19;5031849;28;45582;-75
2022/05/30 05:13:22;;;;;;;;;2.00;2.00;;;;;14.44;50.20;100999.59;5026060;28;46134;-76
2022/05/30 05:15:55;;;;;;;;;4.00;2.67;;;;;14.42;49.89;100996.13;5030734;28;45794;-76
2022/05/30 05:18:20;;;;;;;;;3.67;1.67;;;;;14.53;49.96;101007.13;5039335;28;45761;-76
2022/05/30 05:20:45;;;;;;;;;2.00;2.00;;;;;14.49;50.07;101009.13;5036677;28;45597;-77
2022/05/30 05:23:13;;;;;;;;;3.67;2.00;;;;;14.31;49.77;100967.25;5026644;28;45999;-77
2022/05/30 05:25:40;;;;;;;;;3.00;3.00;;;;;14.56;49.63;101010.53;5016075;28;45630;-76
2022/05/30 05:28:06;;;;;;;;;4.00;4.00;;;;;14.53;49.82;101015.16;5039483;28;45407;-76
2022/05/30 05:30:32;;;;;;;;;5.33;3.00;;;;;14.52;49.82;101002.72;5030334;28;46558;-76
2022/05/30 05:32:57;;;;;;;;;6.33;3.00;;;;;14.62;49.88;101017.38;5033173;28;45439;-75
2022/05/30 05:35:23;;;;;;;;;4.33;4.33;;;;;14.69;49.76;101013.38;5028315;28;45446;-73
2022/05/30 05:37:48;;;;;;;;;5.00;5.00;;;;;14.68;49.45;101005.41;5029461;28;45574;-77
2022/05/30 05:40:14;;;;;;;;;7.00;4.67;;;;;14.77;49.25;101015.63;5035735;28;45702;-76
2022/05/30 05:42:39;;;;;;;;;5.33;4.33;;;;;14.82;49.27;101020.72;5028662;28;48206;-74
2022/05/30 05:45:05;;;;;;;;;5.00;3.00;;;;;14.85;49.25;101020.56;5030274;28;45495;-75
2022/05/30 05:47:31;;;;;;;;;4.00;4.00;;;;;14.81;49.39;101003.75;5032220;28;45439;-75
2022/05/30 05:49:56;;;;;;;;;11.00;6.33;;;;;14.91;49.24;101018.41;5031465;28;45682;-78
2022/05/30 05:52:25;;;;;;;;;2.00;2.00;;;;;14.94;48.66;101018.22;5031744;28;46301;-78
2022/05/30 05:54:54;;;;;;;;;4.00;4.00;;;;;14.98;48.95;101018.91;5030766;28;45719;-74
2022/05/30 05:57:20;;;;;;;;;2.33;2.33;;;;;15.05;48.79;101022.09;5034314;28;45400;-75
2022/05/30 05:59:45;;;;;;;;;4.00;3.00;;;;;15.04;48.68;101013.19;5034328;28;45811;-74
2022/05/30 06:02:11;;;;;;;;;5.00;2.33;;;;;15.05;48.62;101014.91;5030817;28;45472;-74
2022/05/30 06:04:38;;;;;;;;;4.33;2.67;;;;;15.13;48.67;101025.22;5014705;28;46091;-75
2022/05/30 06:07:04;;;;;;;;;3.67;3.67;;;;;15.17;48.99;101024.06;5027729;28;46932;-75
2022/05/30 06:09:29;;;;;;;;;5.67;3.33;;;;;14.98;48.44;101001.00;5032011;28;45392;-75
2022/05/30 06:11:58;;;;;;;;;5.00;4.00;;;;;15.07;48.49;101023.72;5030182;28;45751;-75
2022/05/30 06:14:23;;;;;;;;;4.00;4.00;;;;;14.83;49.38;100983.09;5012887;28;45543;-78
2022/05/30 06:16:49;;;;;;;;;2.00;2.00;;;;;15.13;48.77;101033.28;5032092;28;45738;-77
2022/05/30 06:19:15;;;;;;;;;3.00;3.00;;;;;15.16;48.61;101025.88;5033531;28;45479;-76
2022/05/30 06:21:40;;;;;;;;;5.00;3.00;;;;;15.28;48.50;101028.81;5033451;28;46408;-76
2022/05/30 06:24:07;;;;;;;;;2.67;2.67;;;;;15.20;48.16;101011.34;5033646;28;45514;-77
2022/05/30 06:26:32;;;;;;;;;3.00;3.00;;;;;15.32;48.01;101025.84;5035311;28;45645;-78
2022/05/30 06:28:58;;;;;;;;;4.00;4.00;;;;;15.14;48.47;100992.88;5035294;28;45443;-77
2022/05/30 06:31:27;;;;;;;;;3.00;3.00;;;;;15.33;47.71;101008.78;5036135;28;46326;-76
2022/05/30 06:33:56;;;;;;;;;2.67;2.67;;;;;15.39;47.83;101026.34;5035852;28;45548;-76
2022/05/30 06:36:23;;;;;;;;;2.67;2.67;;;;;15.22;48.01;100994.25;5032853;28;45576;-75
2022/05/30 06:38:50;;;;;;;;;5.33;4.00;;;;;15.37;48.03;101026.44;5032477;28;45463;-77
2022/05/30 06:41:20;;;;;;;;;5.33;3.00;;;;;15.42;47.84;101036.91;5035563;28;45705;-77
2022/05/30 06:43:46;;;;;;;;;5.00;4.00;;;;;15.34;47.67;101009.66;5033224;28;45562;-77
2022/05/30 06:46:14;;;;;;;;;4.00;2.67;;;;;15.57;47.72;101035.16;5035781;28;45459;-77
2022/05/30 06:48:39;;;;;;;;;12.00;7.67;;;;;15.67;47.65;101041.69;5033711;28;45536;-77
2022/05/30 06:51:08;;;;;;;;;3.33;3.00;;;;;15.61;47.30;101013.34;5036043;28;47107;-76
2022/05/30 06:53:34;;;;;;;;;2.00;2.00;;;;;15.61;47.55;101001.75;5035198;28;45688;-77
2022/05/30 06:56:00;;;;;;;;;3.00;3.00;;;;;15.89;47.14;101037.72;5035688;28;45747;-76
2022/05/30 06:58:25;;;;;;;;;8.33;5.00;;;;;15.94;47.01;101039.16;5036764;28;45455;-76
2022/05/30 07:00:52;;;;;;;;;2.33;2.00;;;;;15.85;47.07;101012.88;5036674;28;46079;-77
2022/05/30 07:03:18;;;;;;;;;2.00;2.00;;;;;16.06;46.82;101024.13;5033121;28;45615;-75
2022/05/30 07:05:46;;;;;;;;;4.00;4.00;;;;;15.89;46.81;100986.66;5036966;28;45903;-77
2022/05/30 07:08:12;;;;;;;;;4.00;3.00;;;;;16.15;46.79;101025.34;5035355;28;45531;-77
2022/05/30 07:10:39;;;;;;;;;2.33;2.00;;;;;16.20;46.89;101028.63;5033937;28;46311;-77
2022/05/30 07:13:05;;;;;;;;;2.67;2.00;;;;;16.21;46.65;101020.47;5039595;28;45617;-77
2022/05/30 07:15:34;;;;;;;;;4.00;2.33;;;;;16.32;47.23;101021.59;5049563;28;45432;-77
2022/05/30 07:18:00;;;;;;;;;3.00;3.00;;;;;16.24;46.50;101005.94;5035946;28;45522;-81
2022/05/30 07:20:25;;;;;;;;;3.00;3.00;;;;;16.38;46.13;101018.53;5036238;28;47086;-77
2022/05/30 07:22:51;;;;;;;;;4.00;4.00;;;;;16.39;45.83;101015.75;5024319;28;45525;-77
2022/05/30 07:25:16;;;;;;;;;4.33;3.67;;;;;16.35;45.61;101002.59;5032851;28;45500;-78
2022/05/30 07:27:42;;;;;;;;;2.67;1.67;;;;;16.58;45.69;101025.34;5040060;28;45502;-78
2022/05/30 07:30:08;;;;;;;;;3.67;2.00;;;;;16.22;45.09;100957.66;5037222;28;45703;-78
2022/05/30 07:32:33;;;;;;;;;3.00;3.00;;;;;16.53;45.23;100996.03;5035878;28;45509;-78
2022/05/30 07:35:00;;;;;;;;;2.67;2.00;;;;;16.79;44.89;101029.34;5035286;28;45404;-78
2022/05/30 07:37:26;;;;;;;;;3.00;3.00;;;;;16.87;44.57;101027.00;5037473;28;45366;-76
2022/05/30 07:39:51;;;;;;;;;3.00;3.00;;;;;16.93;44.23;101022.19;5038782;28;45621;-78
2022/05/30 07:42:17;;;;;;;;;4.00;2.00;;;;;17.02;44.07;101025.16;5035699;28;45434;-78
2022/05/30 07:44:42;;;;;;;;;3.33;2.00;;;;;16.98;44.19;101004.78;5037579;28;45423;-78
2022/05/30 07:47:08;;;;;;;;;2.33;2.33;;;;;17.15;43.84;101019.81;5001894;28;45944;-78
2022/05/30 07:49:33;;;;;;;;;3.00;1.33;;;;;17.11;43.07;101006.63;5036694;28;46334;-78
2022/05/30 07:51:59;;;;;;;;;2.00;2.00;;;;;17.27;43.56;101018.13;5035241;28;45619;-78
2022/05/30 07:54:24;;;;;;;;;2.00;2.00;;;;;17.22;43.05;100996.00;5036024;28;45525;-77
2022/05/30 07:56:50;;;;;;;;;2.00;2.00;;;;;17.39;42.95;101014.56;5034942;28;45658;-76
2022/05/30 07:59:16;;;;;;;;;1.00;1.00;;;;;17.33;43.03;100996.16;5036072;28;46319;-78
2022/05/30 08:01:41;;;;;;;;;3.00;2.00;;;;;16.75;42.20;100892.34;5036774;28;45506;-78
2022/05/30 08:04:12;;;;;;;;;2.33;2.33;;;;;17.54;41.47;101015.38;5036415;28;45558;-78
2022/05/30 08:06:38;;;;;;;;;2.67;1.67;;;;;17.52;41.81;101018.16;5036219;28;45612;-78
2022/05/30 08:09:04;;;;;;;;;2.00;2.00;;;;;17.53;41.75;101013.63;5038005;28;47258;-78
2022/05/30 08:11:30;;;;;;;;;2.33;2.33;;;;;17.63;41.42;101028.22;5035963;28;45471;-77
2022/05/30 08:13:55;;;;;;;;;1.00;1.00;;;;;17.69;40.96;101024.22;5035761;28;45485;-77
2022/05/30 08:16:24;;;;;;;;;1.00;1.00;;;;;17.70;40.59;101005.28;5033354;28;45696;-78
2022/05/30 08:18:50;;;;;;;;;2.00;1.00;;;;;17.83;40.61;101017.91;5034874;28;47447;-78
2022/05/30 08:21:16;;;;;;;;;2.00;2.00;;;;;17.89;41.24;101007.56;5035119;28;57085;-78
2022/05/30 08:23:42;;;;;;;;;1.00;1.00;;;;;18.04;40.55;101019.09;5034809;28;45645;-78
2022/05/30 08:26:07;;;;;;;;;2.67;1.00;;;;;18.16;39.96;101019.22;5036527;28;45749;-78
2022/05/30 08:28:34;;;;;;;;;1.33;1.33;;;;;18.29;39.99;101015.53;5035225;28;45992;-78
2022/05/30 08:30:59;;;;;;;;;4.00;1.00;;;;;18.40;39.27;101017.44;5034749;28;45574;-78
2022/05/30 08:33:25;;;;;;;;;0.00;0.00;;;;;18.48;39.48;101017.75;5033791;28;45451;-78
2022/05/30 08:35:59;;;;;;;;;1.67;1.33;;;;;18.62;38.98;101014.06;5036142;28;45679;-77
2022/05/30 08:38:24;;;;;;;;;4.00;2.00;;;;;19.01;38.20;100990.50;5034008;28;48266;-78
2022/05/30 08:43:38;;;;;;;;;0.00;0.00;;;;;20.15;36.08;101000.63;5041562;28;45490;-78
2022/05/30 08:46:35;;;;;;;;;1.00;1.00;;;;;20.41;34.96;100996.69;5040768;28;45625;-78
2022/05/30 08:49:22;;;;;;;;;2.00;1.67;;;;;20.71;34.63;100997.06;5037413;28;47005;-78
2022/05/30 08:52:27;;;;;;;;;1.00;1.00;;;;;21.13;34.78;100992.59;5039294;28;45561;-79
2022/05/30 08:55:30;;;;;;;;;2.33;1.00;;;;;21.73;34.30;100992.97;5035071;28;45474;-79
2022/05/30 08:58:13;;;;;;;;;2.67;1.00;;;;;22.27;32.50;100983.69;5034102;28;45482;-78
2022/05/30 09:00:53;;;;;;;;;1.00;1.00;;;;;22.62;32.04;100957.91;5033049;28;45995;-78
2022/05/30 09:03:31;;;;;;;;;2.33;0.00;;;;;23.48;30.45;100963.50;5029077;28;45495;-80
2022/05/30 09:06:04;;;;;;;;;0.67;0.67;;;;;24.22;28.43;100972.78;5031688;28;45613;-81
2022/05/30 09:08:35;;;;;;;;;1.00;1.00;;;;;24.54;29.49;100949.72;5037912;28;45462;-80
2022/05/30 09:11:13;;;;;;;;;1.00;1.00;;;;;25.26;29.19;100956.94;5034656;28;47898;-81
2022/05/30 09:13:47;;;;;;;;;0.00;0.00;;;;;26.00;28.03;100951.16;5030992;28;45666;-81
2022/05/30 09:16:39;;;;;;;;;0.33;0.33;;;;;26.75;26.31;100981.38;5034479;28;45494;-82
2022/05/30 09:19:07;;;;;;;;;0.00;0.00;;;;;26.83;26.30;100934.91;5034125;28;45487;-82
2022/05/30 09:21:34;;;;;;;;;0.00;0.00;;;;;27.46;25.55;100979.94;5036078;28;47189;-82
2022/05/30 09:24:02;;;;;;;;;0.00;0.00;;;;;27.71;25.13;100966.22;5030170;28;45518;-81
2022/05/30 09:26:35;;;;;;;;;2.00;0.00;;;;;27.68;25.25;100911.81;5036492;28;45402;-82
2022/05/30 09:29:04;;;;;;;;;0.00;0.00;;;;;28.36;24.78;100966.06;5031665;28;45469;-80
2022/05/30 09:31:41;;;;;;;;;0.00;0.00;;;;;28.85;24.57;100966.88;5037906;28;45494;-81
2022/05/30 09:34:31;;;;;;;;;1.00;1.00;;;;;29.34;24.11;100956.41;5028728;28;45806;-81
2022/05/30 09:36:57;;;;;;;;;3.00;0.00;;;;;29.68;23.08;100930.34;5039257;28;45587;-83
2022/05/30 09:39:23;;;;;;;;;2.00;2.00;;;;;30.12;22.65;100946.00;5036677;28;45431;-82
2022/05/30 09:41:59;;;;;;;;;1.33;1.00;;;;;30.42;22.15;100930.34;5038573;28;46017;-82
2022/05/30 09:44:39;;;;;;;;;1.33;0.33;;;;;30.65;21.40;100937.59;5037176;28;45756;-82
2022/05/30 09:47:13;;;;;;;;;0.00;0.00;;;;;31.21;21.42;100939.66;5031979;28;45615;-82
2022/05/30 09:49:42;;;;;;;;;0.00;0.00;;;;;31.60;20.94;100906.09;5041724;28;45448;-82
2022/05/30 09:52:39;;;;;;;;;2.00;2.00;;;;;32.46;19.72;100938.84;5041067;28;46207;-83
2022/05/30 09:55:44;;;;;;;;;2.00;2.00;;;;;33.27;19.96;100943.53;5037588;28;45980;-82
2022/05/30 09:58:10;;;;;;;;;0.67;0.67;;;;;34.03;18.21;100918.13;5027135;28;45318;-82
2022/05/30 10:00:49;;;;;;;;;1.00;1.00;;;;;34.99;17.46;100933.03;5036087;28;45589;-82
2022/05/30 10:03:26;;;;;;;;;1.00;0.00;;;;;35.91;16.12;100935.25;5035685;28;45510;-83
2022/05/30 10:06:12;;;;;;;;;1.33;1.33;;;;;36.99;16.62;100942.00;5035316;28;45419;-83
2022/05/30 10:08:37;;;;;;;;;0.00;0.00;;;;;38.05;14.87;100944.94;5036889;28;45437;-83
2022/05/30 10:11:04;;;;;;;;;1.67;0.33;;;;;38.89;14.09;100933.22;5039502;28;45515;-82
2022/05/30 10:13:42;;;;;;;;;0.00;0.00;;;;;39.20;13.60;100878.06;5023356;28;48382;-82
2022/05/30 10:16:14;;;;;;;;;0.33;0.33;;;;;40.08;13.31;100925.69;5045989;28;45603;-85
2022/05/30 10:19:02;;;;;;;;;0.00;0.00;;;;;40.36;13.18;100927.47;5037929;28;45363;-86
2022/05/30 10:28:14;;;;;;;;;0.33;0.33;;;;;40.26;12.49;100930.16;5039332;28;45539;-84
2022/05/30 10:28:17;;;;;;;;;1.67;1.00;;;;;37.07;14.63;100933.34;5036028;28;45594;-85
2022/05/30 10:31:03;;;;;;;;;3.00;0.00;;;;;36.80;15.29;100940.38;5038042;28;45957;-87
2022/05/30 10:34:00;;;;;;;;;0.00;0.00;;;;;36.48;15.61;100937.78;5043502;28;45971;-83
2022/05/30 10:36:51;;;;;;;;;1.00;1.00;;;;;35.78;15.42;100888.22;5035503;28;48418;-83
2022/05/30 10:39:53;;;;;;;;;0.00;0.00;;;;;35.70;15.59;100934.59;5038532;28;45369;-85
2022/05/30 10:42:56;;;;;;;;;0.00;0.00;;;;;35.34;16.33;100948.38;5038765;28;45478;-86
2022/05/30 10:45:29;;;;;;;;;0.00;0.00;;;;;34.84;16.69;100890.94;5040609;28;45434;-88
2022/05/30 10:47:56;;;;;;;;;0.00;0.00;;;;;34.98;16.23;100942.44;5016908;28;47392;-86
2022/05/30 10:50:45;;;;;;;;;0.00;0.00;;;;;34.75;15.94;100936.63;5045028;28;45541;-88
2022/05/30 10:53:49;;;;;;;;;0.33;0.00;;;;;34.64;16.57;100932.63;5036210;28;45830;-88
2022/05/30 10:56:18;;;;;;;;;0.00;0.00;;;;;34.61;16.27;100935.84;5022791;28;45901;-83
2022/05/30 10:58:52;;;;;;;;;0.00;0.00;;;;;34.35;16.68;100884.19;5033500;28;46192;-82
2022/05/30 11:01:32;;;;;;;;;0.00;0.00;;;;;34.66;16.42;100927.72;5039667;28;45616;-82
2022/05/30 11:04:06;;;;;;;;;0.00;0.00;;;;;34.38;16.45;100892.06;5040510;28;45481;-82
2022/05/30 11:06:39;;;;;;;;;0.00;0.00;;;;;34.37;16.30;100927.19;5035562;28;45560;-83
2022/05/30 11:09:13;;;;;;;;;0.67;0.67;;;;;33.49;16.40;100888.88;5037703;28;46373;-83
2022/05/30 11:11:54;;;;;;;;;1.00;1.00;;;;;32.75;16.93;100881.63;5036867;28;45451;-83
2022/05/30 11:14:43;;;;;;;;;0.00;0.00;;;;;32.02;17.17;100907.03;5039122;28;45546;-83
2022/05/30 11:17:26;;;;;;;;;0.00;0.00;;;;;31.15;17.71;100896.41;5037161;22;45519;-82
2022/05/30 11:19:51;;;;;;;;;2.00;0.00;;;;;30.60;18.19;100935.44;5019931;28;46765;-83
2022/05/30 11:22:31;;;;;;;;;2.25;0.00;;;;;29.90;18.88;100908.47;5018884;28;45779;-82
2022/05/30 11:24:57;;;;;;;;;0.67;0.67;;;;;29.42;19.09;100941.75;5020841;28;45457;-82
2022/05/30 11:27:47;;;;;;;;;0.00;0.00;;;;;28.86;19.93;100932.91;5019394;28;45483;-84
2022/05/30 11:30:37;;;;;;;;;7.33;5.33;;;;;28.16;20.22;100888.03;5020266;28;47202;-82
2022/05/30 11:33:14;;;;;;;;;7.67;6.00;;;;;28.01;20.63;100934.50;4997887;28;45571;-82
2022/05/30 11:36:08;;;;;;;;;7.67;3.00;;;;;27.61;21.00;100922.59;5022388;28;45512;-81
2022/05/30 11:38:46;;;;;;;;;3.00;2.00;;;;;27.22;21.31;100931.53;5023082;28;45631;-82
2022/05/30 11:41:24;;;;;;;;;4.00;3.00;;;;;27.03;21.52;100923.66;5017812;28;46658;-82
2022/05/30 11:44:01;;;;;;;;;15.00;15.00;;;;;27.07;21.73;100925.03;5015632;28;45396;-82
2022/05/30 11:46:52;;;;;;;;;3.00;3.00;;;;;26.92;21.88;100898.31;5025072;28;45664;-82
2022/05/30 11:49:35;;;;;;;;;0.00;0.00;;;;;27.16;21.43;100921.25;5018469;28;45634;-81